sensor_id;sensor_type;location;lat;lon;timestamp;pressure;altitude;pressure_sealevel;temperature;humidity
11041;BME280;5573;49.592;8.662;2023-05-13T00:01:56;100025.59;;;9.20;92.23
11041;BME280;5573;49.592;8.662;2023-05-13T00:04:46;100020.50;;;9.25;92.52
11041;BME280;5573;49.592;8.662;2023-05-13T00:07:34;100027.66;;;9.25;91.55
11041;BME280;5573;49.592;8.662;2023-05-13T00:10:23;100020.09;;;9.22;92.18
11041;BME280;5573;49.592;8.662;2023-05-13T00:13:11;100015.38;;;9.24;91.44
11041;BME280;5573;49.592;8.662;2023-05-13T00:15:59;100006.84;;;9.35;91.79
11041;BME280;5573;49.592;8.662;2023-05-13T00:18:49;100001.13;;;9.38;92.50
11041;BME280;5573;49.592;8.662;2023-05-13T00:21:37;100010.19;;;9.50;91.18
11041;BME280;5573;49.592;8.662;2023-05-13T00:24:26;100000.94;;;9.40;91.20
11041;BME280;5573;49.592;8.662;2023-05-13T00:27:15;100001.16;;;9.45;91.23
11041;BME280;5573;49.592;8.662;2023-05-13T00:30:03;100010.81;;;9.52;90.73
11041;BME280;5573;49.592;8.662;2023-05-13T00:32:52;100003.69;;;9.59;91.25
11041;BME280;5573;49.592;8.662;2023-05-13T00:35:42;100008.34;;;9.51;90.89
11041;BME280;5573;49.592;8.662;2023-05-13T00:38:30;100004.09;;;9.56;89.79
11041;BME280;5573;49.592;8.662;2023-05-13T00:41:18;100003.44;;;9.54;89.47
11041;BME280;5573;49.592;8.662;2023-05-13T00:44:07;100008.34;;;9.57;90.13
11041;BME280;5573;49.592;8.662;2023-05-13T00:46:55;100005.50;;;9.52;89.29
11041;BME280;5573;49.592;8.662;2023-05-13T00:49:44;100012.84;;;9.50;88.79
11041;BME280;5573;49.592;8.662;2023-05-13T00:52:33;100007.31;;;9.45;89.21
11041;BME280;5573;49.592;8.662;2023-05-13T00:55:22;100001.59;;;9.48;89.10
11041;BME280;5573;49.592;8.662;2023-05-13T00:58:10;100013.44;;;9.46;89.52
11041;BME280;5573;49.592;8.662;2023-05-13T01:01:06;100014.41;;;9.38;89.38
11041;BME280;5573;49.592;8.662;2023-05-13T01:04:05;100010.97;;;9.38;88.44
11041;BME280;5573;49.592;8.662;2023-05-13T01:07:04;100011.34;;;9.35;88.58
11041;BME280;5573;49.592;8.662;2023-05-13T01:10:05;100004.78;;;9.31;88.59
11041;BME280;5573;49.592;8.662;2023-05-13T01:12:57;100011.56;;;9.40;88.58
11041;BME280;5573;49.592;8.662;2023-05-13T01:15:50;100016.03;;;9.33;89.58
11041;BME280;5573;49.592;8.662;2023-05-13T01:18:43;100012.50;;;9.19;89.14
11041;BME280;5573;49.592;8.662;2023-05-13T01:21:36;100008.00;;;9.19;89.26
11041;BME280;5573;49.592;8.662;2023-05-13T01:24:25;100002.44;;;9.08;88.84
11041;BME280;5573;49.592;8.662;2023-05-13T01:27:13;100007.34;;;9.11;89.29
11041;BME280;5573;49.592;8.662;2023-05-13T01:30:02;100008.13;;;9.05;88.75
11041;BME280;5573;49.592;8.662;2023-05-13T01:32:52;100004.19;;;8.94;89.21
11041;BME280;5573;49.592;8.662;2023-05-13T01:35:41;100006.63;;;8.89;89.63
11041;BME280;5573;49.592;8.662;2023-05-13T01:38:32;100005.00;;;8.95;89.90
11041;BME280;5573;49.592;8.662;2023-05-13T01:41:22;100006.28;;;9.05;89.51
11041;BME280;5573;49.592;8.662;2023-05-13T01:44:10;100017.56;;;9.07;88.27
11041;BME280;5573;49.592;8.662;2023-05-13T01:46:59;100016.78;;;9.20;88.27
11041;BME280;5573;49.592;8.662;2023-05-13T01:49:48;100010.41;;;9.08;87.97
11041;BME280;5573;49.592;8.662;2023-05-13T01:52:36;100017.06;;;8.97;87.79
11041;BME280;5573;49.592;8.662;2023-05-13T01:55:25;100015.38;;;8.90;88.62
11041;BME280;5573;49.592;8.662;2023-05-13T01:58:14;100015.19;;;8.91;89.04
11041;BME280;5573;49.592;8.662;2023-05-13T02:01:02;100009.28;;;8.89;88.51
11041;BME280;5573;49.592;8.662;2023-05-13T02:03:50;100011.00;;;8.75;89.28
11041;BME280;5573;49.592;8.662;2023-05-13T02:06:40;100028.06;;;8.88;89.14
11041;BME280;5573;49.592;8.662;2023-05-13T02:09:28;99946.63;;;8.39;88.38
11041;BME280;5573;49.592;8.662;2023-05-13T02:12:19;100020.69;;;8.90;88.46
11041;BME280;5573;49.592;8.662;2023-05-13T02:15:08;100016.13;;;8.77;88.48
11041;BME280;5573;49.592;8.662;2023-05-13T02:17:56;100008.13;;;8.70;88.25
11041;BME280;5573;49.592;8.662;2023-05-13T02:20:45;100011.09;;;8.89;88.59
11041;BME280;5573;49.592;8.662;2023-05-13T02:23:33;100016.16;;;8.84;88.46
11041;BME280;5573;49.592;8.662;2023-05-13T02:26:21;100023.56;;;8.88;88.25
11041;BME280;5573;49.592;8.662;2023-05-13T02:29:11;100027.38;;;8.79;88.51
11041;BME280;5573;49.592;8.662;2023-05-13T02:32:00;100023.66;;;8.73;89.12
11041;BME280;5573;49.592;8.662;2023-05-13T02:34:48;100022.81;;;8.66;88.60
11041;BME280;5573;49.592;8.662;2023-05-13T02:37:36;100021.25;;;8.51;89.03
11041;BME280;5573;49.592;8.662;2023-05-13T02:40:24;100025.72;;;8.50;89.07
11041;BME280;5573;49.592;8.662;2023-05-13T02:43:13;100021.53;;;8.62;89.18
11041;BME280;5573;49.592;8.662;2023-05-13T02:46:11;100020.56;;;8.42;89.42
11041;BME280;5573;49.592;8.662;2023-05-13T02:48:59;100022.16;;;8.37;89.94
11041;BME280;5573;49.592;8.662;2023-05-13T02:51:50;100021.78;;;8.40;89.50
11041;BME280;5573;49.592;8.662;2023-05-13T02:54:43;100016.50;;;8.46;89.69
11041;BME280;5573;49.592;8.662;2023-05-13T02:57:31;100015.25;;;8.42;90.09
11041;BME280;5573;49.592;8.662;2023-05-13T03:00:19;100017.34;;;8.47;89.80
11041;BME280;5573;49.592;8.662;2023-05-13T03:03:09;100008.84;;;8.58;90.21
11041;BME280;5573;49.592;8.662;2023-05-13T03:05:57;100002.09;;;8.55;90.42
11041;BME280;5573;49.592;8.662;2023-05-13T03:08:45;100006.97;;;8.52;89.94
11041;BME280;5573;49.592;8.662;2023-05-13T03:11:33;100011.19;;;8.46;90.32
11041;BME280;5573;49.592;8.662;2023-05-13T03:14:21;100002.97;;;8.41;90.49
11041;BME280;5573;49.592;8.662;2023-05-13T03:17:10;99994.84;;;8.43;90.76
11041;BME280;5573;49.592;8.662;2023-05-13T03:19:59;99919.25;;;7.90;90.89
11041;BME280;5573;49.592;8.662;2023-05-13T03:22:48;100012.09;;;8.32;90.93
11041;BME280;5573;49.592;8.662;2023-05-13T03:25:36;100007.69;;;8.39;90.25
11041;BME280;5573;49.592;8.662;2023-05-13T03:28:24;100000.53;;;8.40;90.42
11041;BME280;5573;49.592;8.662;2023-05-13T03:31:12;99999.31;;;8.42;90.04
11041;BME280;5573;49.592;8.662;2023-05-13T03:34:01;100007.94;;;8.44;90.03
11041;BME280;5573;49.592;8.662;2023-05-13T03:36:51;100010.44;;;8.52;90.32
11041;BME280;5573;49.592;8.662;2023-05-13T03:39:39;100004.75;;;8.55;89.38
11041;BME280;5573;49.592;8.662;2023-05-13T03:42:28;100018.25;;;8.60;89.60
11041;BME280;5573;49.592;8.662;2023-05-13T03:45:19;100019.91;;;8.61;89.41
11041;BME280;5573;49.592;8.662;2023-05-13T03:48:10;100012.06;;;8.53;89.78
11041;BME280;5573;49.592;8.662;2023-05-13T03:50:58;100014.72;;;8.53;89.89
11041;BME280;5573;49.592;8.662;2023-05-13T03:53:49;100008.44;;;8.33;90.28
11041;BME280;5573;49.592;8.662;2023-05-13T03:56:37;100020.41;;;8.50;90.26
11041;BME280;5573;49.592;8.662;2023-05-13T03:59:25;100015.38;;;8.55;89.44
11041;BME280;5573;49.592;8.662;2023-05-13T04:02:13;100017.41;;;8.60;89.30
11041;BME280;5573;49.592;8.662;2023-05-13T04:05:01;100019.06;;;8.61;89.25
11041;BME280;5573;49.592;8.662;2023-05-13T04:07:52;100029.38;;;8.70;88.66
11041;BME280;5573;49.592;8.662;2023-05-13T04:10:44;100030.03;;;8.79;88.56
11041;BME280;5573;49.592;8.662;2023-05-13T04:13:33;100039.28;;;8.90;88.13
11041;BME280;5573;49.592;8.662;2023-05-13T04:16:21;100047.47;;;8.88;88.16
11041;BME280;5573;49.592;8.662;2023-05-13T04:19:09;100045.72;;;9.02;88.04
11041;BME280;5573;49.592;8.662;2023-05-13T04:21:58;100040.00;;;9.05;88.46
11041;BME280;5573;49.592;8.662;2023-05-13T04:24:46;100041.69;;;9.12;88.12
11041;BME280;5573;49.592;8.662;2023-05-13T04:27:39;100045.94;;;9.41;88.02
11041;BME280;5573;49.592;8.662;2023-05-13T04:30:33;100057.66;;;9.53;87.25
11041;BME280;5573;49.592;8.662;2023-05-13T04:33:22;100054.13;;;9.46;86.10
11041;BME280;5573;49.592;8.662;2023-05-13T04:36:10;100055.63;;;9.55;86.93
11041;BME280;5573;49.592;8.662;2023-05-13T04:39:01;100050.72;;;9.59;86.65
11041;BME280;5573;49.592;8.662;2023-05-13T04:41:49;100056.91;;;9.72;86.29
11041;BME280;5573;49.592;8.662;2023-05-13T04:44:39;100060.97;;;9.68;86.03
11041;BME280;5573;49.592;8.662;2023-05-13T04:47:27;100061.41;;;9.72;86.66
11041;BME280;5573;49.592;8.662;2023-05-13T04:50:16;100064.16;;;9.98;85.31
11041;BME280;5573;49.592;8.662;2023-05-13T04:53:05;100062.97;;;10.14;84.18
11041;BME280;5573;49.592;8.662;2023-05-13T04:55:53;100076.13;;;10.29;83.59
11041;BME280;5573;49.592;8.662;2023-05-13T04:58:48;100075.53;;;10.40;83.29
11041;BME280;5573;49.592;8.662;2023-05-13T05:01:38;100071.88;;;10.67;77.41
11041;BME280;5573;49.592;8.662;2023-05-13T05:04:26;100086.63;;;10.69;79.70
11041;BME280;5573;49.592;8.662;2023-05-13T05:07:15;100065.28;;;10.96;76.43
11041;BME280;5573;49.592;8.662;2023-05-13T05:10:05;100078.41;;;10.97;76.73
11041;BME280;5573;49.592;8.662;2023-05-13T05:12:55;100071.84;;;11.00;77.36
11041;BME280;5573;49.592;8.662;2023-05-13T05:15:44;100068.97;;;10.95;78.88
11041;BME280;5573;49.592;8.662;2023-05-13T05:18:34;100073.50;;;11.01;78.05
11041;BME280;5573;49.592;8.662;2023-05-13T05:21:24;100084.53;;;11.11;75.89
11041;BME280;5573;49.592;8.662;2023-05-13T05:24:14;100082.47;;;11.26;75.71
11041;BME280;5573;49.592;8.662;2023-05-13T05:27:03;100091.00;;;11.54;73.94
11041;BME280;5573;49.592;8.662;2023-05-13T05:29:54;100095.97;;;11.44;75.33
11041;BME280;5573;49.592;8.662;2023-05-13T05:32:42;100093.50;;;11.49;75.91
11041;BME280;5573;49.592;8.662;2023-05-13T05:35:31;100091.41;;;11.51;75.63
11041;BME280;5573;49.592;8.662;2023-05-13T05:38:25;100094.47;;;11.68;74.48
11041;BME280;5573;49.592;8.662;2023-05-13T05:41:16;100095.06;;;11.77;74.61
11041;BME280;5573;49.592;8.662;2023-05-13T05:44:05;100095.59;;;11.92;72.67
11041;BME280;5573;49.592;8.662;2023-05-13T05:46:53;100101.06;;;12.10;71.53
11041;BME280;5573;49.592;8.662;2023-05-13T05:49:42;100100.78;;;12.25;72.35
11041;BME280;5573;49.592;8.662;2023-05-13T05:52:31;100100.69;;;12.38;68.99
11041;BME280;5573;49.592;8.662;2023-05-13T05:55:20;100097.34;;;12.49;67.41
11041;BME280;5573;49.592;8.662;2023-05-13T05:58:08;100111.09;;;12.52;70.39
11041;BME280;5573;49.592;8.662;2023-05-13T06:00:57;100104.16;;;12.70;66.51
11041;BME280;5573;49.592;8.662;2023-05-13T06:03:46;100099.69;;;12.63;69.55
11041;BME280;5573;49.592;8.662;2023-05-13T06:06:37;100115.16;;;12.86;68.25
11041;BME280;5573;49.592;8.662;2023-05-13T06:09:27;100119.09;;;12.84;66.59
11041;BME280;5573;49.592;8.662;2023-05-13T06:12:16;100118.84;;;12.85;66.61
11041;BME280;5573;49.592;8.662;2023-05-13T06:15:05;100123.63;;;12.83;66.34
11041;BME280;5573;49.592;8.662;2023-05-13T06:17:56;100125.63;;;12.88;67.56
11041;BME280;5573;49.592;8.662;2023-05-13T06:20:44;100130.03;;;13.00;66.39
11041;BME280;5573;49.592;8.662;2023-05-13T06:23:33;100129.66;;;12.97;68.11
11041;BME280;5573;49.592;8.662;2023-05-13T06:26:22;100135.34;;;13.14;68.82
11041;BME280;5573;49.592;8.662;2023-05-13T06:29:10;100125.16;;;13.22;68.44
11041;BME280;5573;49.592;8.662;2023-05-13T06:31:58;100125.47;;;13.32;68.61
11041;BME280;5573;49.592;8.662;2023-05-13T06:34:46;100118.94;;;13.46;68.51
11041;BME280;5573;49.592;8.662;2023-05-13T06:37:35;100122.19;;;13.85;65.11
11041;BME280;5573;49.592;8.662;2023-05-13T06:40:23;100123.34;;;13.95;63.22
11041;BME280;5573;49.592;8.662;2023-05-13T06:43:14;100130.47;;;14.49;62.21
11041;BME280;5573;49.592;8.662;2023-05-13T06:46:06;100123.06;;;14.86;61.80
11041;BME280;5573;49.592;8.662;2023-05-13T06:48:55;100126.34;;;15.00;60.43
11041;BME280;5573;49.592;8.662;2023-05-13T06:51:44;100127.53;;;15.39;60.59
11041;BME280;5573;49.592;8.662;2023-05-13T06:54:32;100128.94;;;15.65;57.84
11041;BME280;5573;49.592;8.662;2023-05-13T06:57:20;100126.13;;;15.71;57.70
11041;BME280;5573;49.592;8.662;2023-05-13T07:00:19;100124.78;;;15.97;58.15
11041;BME280;5573;49.592;8.662;2023-05-13T07:03:08;100128.34;;;16.42;55.74
11041;BME280;5573;49.592;8.662;2023-05-13T07:05:56;100086.31;;;16.53;55.29
11041;BME280;5573;49.592;8.662;2023-05-13T07:08:45;100124.72;;;17.65;51.30
11041;BME280;5573;49.592;8.662;2023-05-13T07:11:33;100135.84;;;17.35;52.13
11041;BME280;5573;49.592;8.662;2023-05-13T07:14:21;100129.84;;;16.95;53.06
11041;BME280;5573;49.592;8.662;2023-05-13T07:17:13;100125.16;;;17.40;50.37
11041;BME280;5573;49.592;8.662;2023-05-13T07:20:01;100125.41;;;17.99;50.17
11041;BME280;5573;49.592;8.662;2023-05-13T07:22:50;100121.72;;;18.54;48.69
11041;BME280;5573;49.592;8.662;2023-05-13T07:25:38;100123.66;;;17.88;47.96
11041;BME280;5573;49.592;8.662;2023-05-13T07:28:26;100126.97;;;17.95;47.16
11041;BME280;5573;49.592;8.662;2023-05-13T07:31:15;100125.72;;;17.81;50.37
11041;BME280;5573;49.592;8.662;2023-05-13T07:34:04;100120.22;;;17.92;47.47
11041;BME280;5573;49.592;8.662;2023-05-13T07:36:53;100123.66;;;17.11;51.62
11041;BME280;5573;49.592;8.662;2023-05-13T07:39:40;100119.19;;;16.55;52.90
11041;BME280;5573;49.592;8.662;2023-05-13T07:42:29;100125.91;;;16.13;54.83
11041;BME280;5573;49.592;8.662;2023-05-13T07:45:16;100123.94;;;15.57;54.23
11041;BME280;5573;49.592;8.662;2023-05-13T07:48:05;100123.34;;;15.31;58.15
11041;BME280;5573;49.592;8.662;2023-05-13T07:50:55;100126.16;;;15.36;56.28
11041;BME280;5573;49.592;8.662;2023-05-13T07:53:43;100132.25;;;15.55;57.00
11041;BME280;5573;49.592;8.662;2023-05-13T07:56:32;100130.31;;;15.79;55.73
11041;BME280;5573;49.592;8.662;2023-05-13T07:59:20;100128.66;;;16.29;54.46
11041;BME280;5573;49.592;8.662;2023-05-13T08:02:08;100137.19;;;16.55;54.33
11041;BME280;5573;49.592;8.662;2023-05-13T08:04:57;100122.22;;;16.59;55.15
11041;BME280;5573;49.592;8.662;2023-05-13T08:07:46;100134.91;;;17.08;52.29
11041;BME280;5573;49.592;8.662;2023-05-13T08:10:34;100119.19;;;17.38;50.80
11041;BME280;5573;49.592;8.662;2023-05-13T08:13:22;100118.19;;;17.83;50.39
11041;BME280;5573;49.592;8.662;2023-05-13T08:16:11;100119.81;;;18.27;49.79
11041;BME280;5573;49.592;8.662;2023-05-13T08:18:59;100114.88;;;18.19;48.80
11041;BME280;5573;49.592;8.662;2023-05-13T08:21:48;100119.84;;;18.32;50.31
11041;BME280;5573;49.592;8.662;2023-05-13T08:24:37;100118.03;;;18.38;49.67
11041;BME280;5573;49.592;8.662;2023-05-13T08:27:26;100115.59;;;18.36;48.47
11041;BME280;5573;49.592;8.662;2023-05-13T08:30:15;100110.59;;;18.23;48.24
11041;BME280;5573;49.592;8.662;2023-05-13T08:33:03;100115.25;;;18.06;48.82
11041;BME280;5573;49.592;8.662;2023-05-13T08:35:51;100105.59;;;18.10;47.86
11041;BME280;5573;49.592;8.662;2023-05-13T08:38:39;100104.44;;;18.01;48.08
11041;BME280;5573;49.592;8.662;2023-05-13T08:41:29;100105.53;;;18.05;48.14
11041;BME280;5573;49.592;8.662;2023-05-13T08:44:19;100114.97;;;18.29;48.18
11041;BME280;5573;49.592;8.662;2023-05-13T08:47:15;100101.31;;;18.14;45.68
11041;BME280;5573;49.592;8.662;2023-05-13T08:50:10;100114.44;;;18.27;49.22
11041;BME280;5573;49.592;8.662;2023-05-13T08:52:58;100116.19;;;18.43;48.22
11041;BME280;5573;49.592;8.662;2023-05-13T08:55:47;100121.59;;;18.43;46.70
11041;BME280;5573;49.592;8.662;2023-05-13T08:58:38;100112.75;;;18.48;48.65
11041;BME280;5573;49.592;8.662;2023-05-13T09:01:27;100110.97;;;18.59;47.58
11041;BME280;5573;49.592;8.662;2023-05-13T09:04:17;100115.59;;;18.90;47.40
11041;BME280;5573;49.592;8.662;2023-05-13T09:07:06;100111.34;;;18.67;46.65
11041;BME280;5573;49.592;8.662;2023-05-13T09:09:54;100112.53;;;18.81;45.41
11041;BME280;5573;49.592;8.662;2023-05-13T09:12:47;100108.50;;;18.84;47.71
11041;BME280;5573;49.592;8.662;2023-05-13T09:15:40;100117.88;;;19.08;46.60
11041;BME280;5573;49.592;8.662;2023-05-13T09:18:29;100124.66;;;19.48;45.70
11041;BME280;5573;49.592;8.662;2023-05-13T09:21:21;100113.59;;;19.49;43.78
11041;BME280;5573;49.592;8.662;2023-05-13T09:24:11;100115.84;;;19.67;45.42
11041;BME280;5573;49.592;8.662;2023-05-13T09:27:04;100120.47;;;19.72;46.45
11041;BME280;5573;49.592;8.662;2023-05-13T09:29:58;100108.72;;;20.13;44.16
11041;BME280;5573;49.592;8.662;2023-05-13T09:33:05;100117.34;;;20.05;44.16
11041;BME280;5573;49.592;8.662;2023-05-13T09:35:54;100112.91;;;19.74;44.08
11041;BME280;5573;49.592;8.662;2023-05-13T09:38:42;100110.47;;;19.72;43.63
11041;BME280;5573;49.592;8.662;2023-05-13T09:41:30;100120.53;;;19.87;44.85
11041;BME280;5573;49.592;8.662;2023-05-13T09:44:18;100112.09;;;19.78;41.58
11041;BME280;5573;49.592;8.662;2023-05-13T09:47:10;100110.41;;;19.57;43.64
11041;BME280;5573;49.592;8.662;2023-05-13T09:50:01;100105.31;;;19.71;41.63
11041;BME280;5573;49.592;8.662;2023-05-13T09:52:49;100103.25;;;19.93;42.69
11041;BME280;5573;49.592;8.662;2023-05-13T09:55:37;100114.09;;;19.98;43.04
11041;BME280;5573;49.592;8.662;2023-05-13T09:58:27;100098.84;;;19.77;42.63
11041;BME280;5573;49.592;8.662;2023-05-13T10:01:16;100105.91;;;19.83;45.20
11041;BME280;5573;49.592;8.662;2023-05-13T10:04:05;100105.97;;;19.98;44.92
11041;BME280;5573;49.592;8.662;2023-05-13T10:06:56;100109.28;;;20.20;44.92
11041;BME280;5573;49.592;8.662;2023-05-13T10:09:45;100101.97;;;20.16;44.01
11041;BME280;5573;49.592;8.662;2023-05-13T10:12:34;100110.34;;;20.14;44.88
11041;BME280;5573;49.592;8.662;2023-05-13T10:15:25;100109.28;;;20.15;42.49
11041;BME280;5573;49.592;8.662;2023-05-13T10:18:14;100102.19;;;19.99;43.62
11041;BME280;5573;49.592;8.662;2023-05-13T10:21:03;100107.09;;;20.12;45.02
11041;BME280;5573;49.592;8.662;2023-05-13T10:23:55;100108.84;;;20.59;44.25
11041;BME280;5573;49.592;8.662;2023-05-13T10:26:44;100100.69;;;20.39;42.18
11041;BME280;5573;49.592;8.662;2023-05-13T10:29:33;100109.50;;;20.04;42.59
11041;BME280;5573;49.592;8.662;2023-05-13T10:32:23;100095.19;;;20.08;41.82
11041;BME280;5573;49.592;8.662;2023-05-13T10:35:13;100103.78;;;19.95;42.51
11041;BME280;5573;49.592;8.662;2023-05-13T10:38:05;100090.09;;;20.27;42.91
11041;BME280;5573;49.592;8.662;2023-05-13T10:41:08;100101.81;;;20.68;42.38
11041;BME280;5573;49.592;8.662;2023-05-13T10:43:57;100105.84;;;20.45;42.27
11041;BME280;5573;49.592;8.662;2023-05-13T10:46:46;100102.06;;;20.51;43.90
11041;BME280;5573;49.592;8.662;2023-05-13T10:49:35;100101.25;;;20.56;44.11
11041;BME280;5573;49.592;8.662;2023-05-13T10:52:40;100100.97;;;20.52;41.47
11041;BME280;5573;49.592;8.662;2023-05-13T10:55:28;100087.72;;;20.46;42.85
11041;BME280;5573;49.592;8.662;2023-05-13T10:58:18;100099.66;;;20.65;41.94
11041;BME280;5573;49.592;8.662;2023-05-13T11:01:13;100097.97;;;20.33;43.03
11041;BME280;5573;49.592;8.662;2023-05-13T11:04:04;100092.88;;;20.42;42.72
11041;BME280;5573;49.592;8.662;2023-05-13T11:06:53;100087.16;;;20.99;41.67
11041;BME280;5573;49.592;8.662;2023-05-13T11:09:47;100089.88;;;21.29;43.00
11041;BME280;5573;49.592;8.662;2023-05-13T11:12:37;100072.81;;;21.04;42.18
11041;BME280;5573;49.592;8.662;2023-05-13T11:15:42;100080.19;;;20.73;42.20
11041;BME280;5573;49.592;8.662;2023-05-13T11:18:33;100071.94;;;20.12;43.73
11041;BME280;5573;49.592;8.662;2023-05-13T11:21:29;100070.91;;;20.28;41.51
11041;BME280;5573;49.592;8.662;2023-05-13T11:24:18;100061.88;;;20.03;43.15
11041;BME280;5573;49.592;8.662;2023-05-13T11:27:14;100067.63;;;20.21;42.42
11041;BME280;5573;49.592;8.662;2023-05-13T11:30:05;100069.31;;;20.48;43.12
11041;BME280;5573;49.592;8.662;2023-05-13T11:32:56;100065.00;;;20.57;43.08
11041;BME280;5573;49.592;8.662;2023-05-13T11:35:52;100069.59;;;20.97;41.97
11041;BME280;5573;49.592;8.662;2023-05-13T11:38:41;100057.41;;;20.94;41.54
11041;BME280;5573;49.592;8.662;2023-05-13T11:41:30;100066.59;;;20.88;43.82
11041;BME280;5573;49.592;8.662;2023-05-13T11:44:21;100061.75;;;20.70;38.82
11041;BME280;5573;49.592;8.662;2023-05-13T11:47:10;100064.97;;;20.31;42.90
11041;BME280;5573;49.592;8.662;2023-05-13T11:49:59;100051.84;;;19.88;41.13
11041;BME280;5573;49.592;8.662;2023-05-13T11:52:51;100051.03;;;19.82;44.80
11041;BME280;5573;49.592;8.662;2023-05-13T11:55:39;100053.16;;;19.80;44.09
11041;BME280;5573;49.592;8.662;2023-05-13T11:58:27;100046.34;;;19.63;43.08
11041;BME280;5573;49.592;8.662;2023-05-13T12:01:15;100051.94;;;20.18;42.92
11041;BME280;5573;49.592;8.662;2023-05-13T12:04:03;100047.13;;;20.46;40.59
11041;BME280;5573;49.592;8.662;2023-05-13T12:06:53;100049.84;;;20.71;39.82
11041;BME280;5573;49.592;8.662;2023-05-13T12:09:43;100043.06;;;20.78;39.42
11041;BME280;5573;49.592;8.662;2023-05-13T12:12:32;100050.34;;;20.93;41.34
11041;BME280;5573;49.592;8.662;2023-05-13T12:15:21;100050.66;;;20.71;39.40
11041;BME280;5573;49.592;8.662;2023-05-13T12:18:10;100053.06;;;20.93;39.94
11041;BME280;5573;49.592;8.662;2023-05-13T12:20:58;100040.91;;;20.55;40.16
11041;BME280;5573;49.592;8.662;2023-05-13T12:23:47;100047.69;;;20.68;41.27
11041;BME280;5573;49.592;8.662;2023-05-13T12:26:35;100044.97;;;20.38;38.08
11041;BME280;5573;49.592;8.662;2023-05-13T12:29:24;100053.28;;;20.26;41.92
11041;BME280;5573;49.592;8.662;2023-05-13T12:32:15;100052.53;;;20.56;39.70
11041;BME280;5573;49.592;8.662;2023-05-13T12:35:11;100048.22;;;20.60;39.17
11041;BME280;5573;49.592;8.662;2023-05-13T12:38:01;100046.31;;;20.70;39.80
11041;BME280;5573;49.592;8.662;2023-05-13T12:40:50;100051.97;;;21.04;39.51
11041;BME280;5573;49.592;8.662;2023-05-13T12:43:41;100041.28;;;21.53;38.84
11041;BME280;5573;49.592;8.662;2023-05-13T12:46:29;100031.28;;;21.54;39.56
11041;BME280;5573;49.592;8.662;2023-05-13T12:49:18;100040.53;;;21.43;37.60
11041;BME280;5573;49.592;8.662;2023-05-13T12:52:06;100020.06;;;20.76;39.43
11041;BME280;5573;49.592;8.662;2023-05-13T12:54:54;100043.84;;;20.99;39.90
11041;BME280;5573;49.592;8.662;2023-05-13T12:57:53;100034.56;;;21.46;38.73
11041;BME280;5573;49.592;8.662;2023-05-13T13:00:42;99974.78;;;21.17;41.00
11041;BME280;5573;49.592;8.662;2023-05-13T13:03:30;100041.28;;;21.53;40.74
11041;BME280;5573;49.592;8.662;2023-05-13T13:06:18;100044.66;;;21.25;39.10
11041;BME280;5573;49.592;8.662;2023-05-13T13:09:06;100040.63;;;20.72;42.45
11041;BME280;5573;49.592;8.662;2023-05-13T13:11:54;100044.69;;;20.39;41.53
11041;BME280;5573;49.592;8.662;2023-05-13T13:14:44;100036.69;;;19.82;41.41
11041;BME280;5573;49.592;8.662;2023-05-13T13:17:32;100031.25;;;19.67;41.49
11041;BME280;5573;49.592;8.662;2023-05-13T13:20:20;100029.91;;;19.74;41.65
11041;BME280;5573;49.592;8.662;2023-05-13T13:23:08;100024.81;;;19.83;42.73
11041;BME280;5573;49.592;8.662;2023-05-13T13:25:56;100040.38;;;20.53;42.80
11041;BME280;5573;49.592;8.662;2023-05-13T13:28:45;100026.13;;;21.52;39.58
11041;BME280;5573;49.592;8.662;2023-05-13T13:31:34;100024.28;;;22.02;37.64
11041;BME280;5573;49.592;8.662;2023-05-13T13:34:22;100025.84;;;21.49;37.53
11041;BME280;5573;49.592;8.662;2023-05-13T13:37:10;100026.28;;;20.66;39.69
11041;BME280;5573;49.592;8.662;2023-05-13T13:39:59;100025.16;;;20.12;40.69
11041;BME280;5573;49.592;8.662;2023-05-13T13:42:47;100021.34;;;20.08;42.70
11041;BME280;5573;49.592;8.662;2023-05-13T13:45:35;100018.13;;;20.06;40.76
11041;BME280;5573;49.592;8.662;2023-05-13T13:48:24;100024.63;;;20.10;42.73
11041;BME280;5573;49.592;8.662;2023-05-13T13:51:13;99952.66;;;20.04;39.26
11041;BME280;5573;49.592;8.662;2023-05-13T13:54:03;100020.06;;;20.46;39.50
11041;BME280;5573;49.592;8.662;2023-05-13T13:56:50;100009.75;;;20.32;40.19
11041;BME280;5573;49.592;8.662;2023-05-13T13:59:39;100013.00;;;20.24;40.92
11041;BME280;5573;49.592;8.662;2023-05-13T14:02:27;100010.88;;;20.62;40.95
11041;BME280;5573;49.592;8.662;2023-05-13T14:05:17;100008.06;;;21.27;40.47
11041;BME280;5573;49.592;8.662;2023-05-13T14:08:05;100010.09;;;21.61;36.98
11041;BME280;5573;49.592;8.662;2023-05-13T14:10:53;100007.50;;;21.25;36.65
11041;BME280;5573;49.592;8.662;2023-05-13T14:13:41;100018.94;;;21.12;38.10
11041;BME280;5573;49.592;8.662;2023-05-13T14:16:29;100007.84;;;20.99;38.56
11041;BME280;5573;49.592;8.662;2023-05-13T14:19:17;100006.50;;;20.81;36.29
11041;BME280;5573;49.592;8.662;2023-05-13T14:22:07;100000.81;;;20.88;37.25
11041;BME280;5573;49.592;8.662;2023-05-13T14:24:55;100002.41;;;21.09;38.70
11041;BME280;5573;49.592;8.662;2023-05-13T14:27:43;99999.47;;;20.70;39.19
11041;BME280;5573;49.592;8.662;2023-05-13T14:30:31;100008.41;;;20.80;40.00
11041;BME280;5573;49.592;8.662;2023-05-13T14:33:19;99996.78;;;20.65;38.65
11041;BME280;5573;49.592;8.662;2023-05-13T14:36:07;100009.22;;;20.66;39.66
11041;BME280;5573;49.592;8.662;2023-05-13T14:38:58;100002.16;;;20.14;39.86
11041;BME280;5573;49.592;8.662;2023-05-13T14:41:46;100002.19;;;20.29;41.73
11041;BME280;5573;49.592;8.662;2023-05-13T14:44:34;100007.63;;;20.50;42.32
11041;BME280;5573;49.592;8.662;2023-05-13T14:47:22;99996.47;;;20.11;40.25
11041;BME280;5573;49.592;8.662;2023-05-13T14:50:10;99993.50;;;20.12;42.68
11041;BME280;5573;49.592;8.662;2023-05-13T14:53:00;99994.56;;;20.06;39.31
11041;BME280;5573;49.592;8.662;2023-05-13T14:55:50;99995.38;;;20.07;41.04
11041;BME280;5573;49.592;8.662;2023-05-13T14:58:38;99992.16;;;20.10;40.84
11041;BME280;5573;49.592;8.662;2023-05-13T15:01:26;99988.66;;;20.55;41.01
11041;BME280;5573;49.592;8.662;2023-05-13T15:04:14;99993.19;;;21.10;37.37